LDM weather

Mason County Airport
Ludington, Michigan, United States

Public forecast

Using degrees Fahrenheit for public forecast. Weather courtesy of forecast.io.

Current aviation weather report (METAR) for Mason County Airport

Retrieved 2020/07/05 16:35 UTC (41 minutes ago):

KLDM 051635Z AUTO 22007KT 10SM CLR 29/13 A3001 RMK AO2 T02900134

Closest aviation forecast (TAF) to Mason County Airport

Closest forecast is Manistee Co Blacker Airport, 19.9 nm (36.8 km) NNE. Retrieved 2020/07/05 12:33 UTC (5 hours ago):

TAF KMBL 051131Z 0512/0612 00000KT P6SM FEW030 FM051700 30005KT P6SM FEW060 FM052300 VRB03KT P6SM FEW080